Time;durP1;ratioP1;P1;durP2;ratioP2;P2;SDS_P1;SDS_P2;PMS_P1;PMS_P2;Temp;Humidity;BMP_temperature;BMP_pressure;BME280_temperature;BME280_humidity;BME280_pressure;Samples;Min_cycle;Max_cycle;Signal;HPM_P1;HPM_P2
2022/05/22 00:01:12;;;;;;;7.30;3.07;;;;;;;;;;5054658;28;20301;-66
2022/05/22 00:03:38;;;;;;;6.30;3.27;;;;;;;;;;5053790;28;20202;-66
2022/05/22 00:06:04;;;;;;;6.90;2.93;;;;;;;;;;5055255;28;20542;-66
2022/05/22 00:08:29;;;;;;;5.20;3.20;;;;;;;;;;5055127;28;20585;-65
2022/05/22 00:10:55;;;;;;;3.40;2.60;;;;;;;;;;5036667;28;20779;-65
2022/05/22 00:13:21;;;;;;;7.87;3.00;;;;;;;;;;5055182;28;20634;-66
2022/05/22 00:18:32;;;;;;;3.67;2.90;;;;;;;;;;5055066;28;20182;-66
2022/05/22 00:20:58;;;;;;;6.03;2.87;;;;;;;;;;5054362;28;20577;-66
2022/05/22 00:23:24;;;;;;;4.87;3.13;;;;;;;;;;5054320;28;20202;-66
2022/05/22 00:25:50;;;;;;;7.87;2.67;;;;;;;;;;5054350;28;20179;-66
2022/05/22 00:28:16;;;;;;;3.87;2.80;;;;;;;;;;5054308;28;20189;-66
2022/05/22 00:30:42;;;;;;;6.30;2.67;;;;;;;;;;5054339;28;20604;-65
2022/05/22 00:33:08;;;;;;;4.27;2.67;;;;;;;;;;5054169;28;20178;-66
2022/05/22 00:35:34;;;;;;;3.10;2.57;;;;;;;;;;5054148;28;20174;-66
2022/05/22 00:38:00;;;;;;;6.43;2.80;;;;;;;;;;5054450;28;20179;-66
2022/05/22 00:40:26;;;;;;;4.67;3.63;;;;;;;;;;5054091;28;20293;-65
2022/05/22 00:42:52;;;;;;;5.60;3.23;;;;;;;;;;5054079;28;20237;-66
2022/05/22 00:45:19;;;;;;;6.03;3.40;;;;;;;;;;5054310;28;20182;-66
2022/05/22 00:47:45;;;;;;;6.63;3.07;;;;;;;;;;5053917;28;20260;-66
2022/05/22 00:50:12;;;;;;;10.20;3.53;;;;;;;;;;5035960;28;20234;-66
2022/05/22 00:52:44;;;;;;;7.70;3.20;;;;;;;;;;5053941;28;20178;-66
2022/05/22 00:55:22;;;;;;;7.33;3.87;;;;;;;;;;5036050;28;20715;-66
2022/05/22 00:57:52;;;;;;;3.77;3.27;;;;;;;;;;5053884;28;20173;-66
2022/05/22 01:00:19;;;;;;;6.37;3.60;;;;;;;;;;5035788;28;20218;-66
2022/05/22 01:05:48;;;;;;;5.70;4.23;;;;;;;;;;4992544;28;20237;-66
2022/05/22 01:08:14;;;;;;;5.83;3.97;;;;;;;;;;5041462;28;20201;-66
2022/05/22 01:10:43;;;;;;;9.47;4.43;;;;;;;;;;5053541;28;20202;-65
2022/05/22 01:13:09;;;;;;;7.33;4.00;;;;;;;;;;5035505;28;20193;-67
2022/05/22 01:15:35;;;;;;;8.10;4.40;;;;;;;;;;5035822;28;20182;-65
2022/05/22 01:18:01;;;;;;;7.17;4.90;;;;;;;;;;5035590;28;20662;-65
2022/05/22 01:20:27;;;;;;;8.93;5.07;;;;;;;;;;5053951;28;20222;-66
2022/05/22 01:22:53;;;;;;;9.00;4.40;;;;;;;;;;5053339;28;20209;-66
2022/05/22 01:25:19;;;;;;;9.53;4.63;;;;;;;;;;5053517;28;20181;-66
2022/05/22 01:27:45;;;;;;;7.47;5.27;;;;;;;;;;5053351;28;20228;-65
2022/05/22 01:30:11;;;;;;;5.33;3.43;;;;;;;;;;5053703;28;20190;-66
2022/05/22 01:32:38;;;;;;;6.03;4.23;;;;;;;;;;5053532;28;20178;-65
2022/05/22 01:35:04;;;;;;;8.70;4.37;;;;;;;;;;5053995;28;20187;-66
2022/05/22 01:37:30;;;;;;;9.23;4.67;;;;;;;;;;5035621;28;20205;-65
2022/05/22 01:39:56;;;;;;;11.17;4.77;;;;;;;;;;5053338;28;20675;-66
2022/05/22 01:42:22;;;;;;;8.53;4.20;;;;;;;;;;5053673;28;20559;-66
2022/05/22 01:44:48;;;;;;;5.53;4.50;;;;;;;;;;5035259;28;20596;-66
2022/05/22 01:47:14;;;;;;;6.77;4.33;;;;;;;;;;5053199;28;20181;-66
2022/05/22 01:49:40;;;;;;;4.87;4.20;;;;;;;;;;5053122;28;20197;-66
2022/05/22 01:52:06;;;;;;;7.53;4.80;;;;;;;;;;5053016;28;20272;-66
2022/05/22 01:54:32;;;;;;;7.07;4.53;;;;;;;;;;5035054;28;20183;-66
2022/05/22 01:56:58;;;;;;;8.40;4.43;;;;;;;;;;5053068;28;20258;-66
2022/05/22 01:59:24;;;;;;;6.70;4.37;;;;;;;;;;5052794;28;20178;-65
2022/05/22 02:01:50;;;;;;;9.90;4.40;;;;;;;;;;5053300;28;20216;-66
2022/05/22 02:04:15;;;;;;;7.37;4.30;;;;;;;;;;5053294;28;20586;-66
2022/05/22 02:09:26;;;;;;;8.03;4.57;;;;;;;;;;5053055;28;20173;-66
2022/05/22 02:11:52;;;;;;;9.80;4.57;;;;;;;;;;5052893;28;20257;-66
2022/05/22 02:14:18;;;;;;;7.83;4.13;;;;;;;;;;5052756;28;20209;-65
2022/05/22 02:16:44;;;;;;;4.50;3.73;;;;;;;;;;5053097;28;20587;-66
2022/05/22 02:19:10;;;;;;;6.80;4.20;;;;;;;;;;5053014;28;20179;-65
2022/05/22 02:21:36;;;;;;;5.13;4.13;;;;;;;;;;5035033;28;20186;-66
2022/05/22 02:24:03;;;;;;;4.83;4.03;;;;;;;;;;5052899;28;20202;-66
2022/05/22 02:26:29;;;;;;;6.00;4.50;;;;;;;;;;5037164;28;20655;-67
2022/05/22 02:28:55;;;;;;;6.17;4.10;;;;;;;;;;5056709;28;20650;-66
2022/05/22 02:31:21;;;;;;;5.30;3.80;;;;;;;;;;5038576;28;20198;-66
2022/05/22 02:33:46;;;;;;;6.67;4.13;;;;;;;;;;5056703;28;20183;-66
2022/05/22 02:36:14;;;;;;;10.30;4.77;;;;;;;;;;5056488;28;20287;-66
2022/05/22 02:38:40;;;;;;;5.13;4.20;;;;;;;;;;5038627;28;20197;-66
2022/05/22 02:41:15;;;;;;;5.03;4.00;;;;;;;;;;5056364;28;20245;-66
2022/05/22 02:43:41;;;;;;;6.30;4.00;;;;;;;;;;5056401;28;20209;-66
2022/05/22 02:46:11;;;;;;;6.47;4.47;;;;;;;;;;5056614;28;20174;-66
2022/05/22 02:48:37;;;;;;;7.83;4.53;;;;;;;;;;5056229;28;20173;-66
2022/05/22 02:51:03;;;;;;;8.20;4.40;;;;;;;;;;5038197;28;20194;-66
2022/05/22 02:53:29;;;;;;;5.63;3.90;;;;;;;;;;5056102;28;20182;-66
2022/05/22 02:55:55;;;;;;;8.33;4.90;;;;;;;;;;5056098;28;20178;-66
2022/05/22 02:58:21;;;;;;;10.30;4.63;;;;;;;;;;5038293;28;20182;-66
2022/05/22 03:00:47;;;;;;;5.00;4.33;;;;;;;;;;5055817;28;20217;-66
2022/05/22 03:03:13;;;;;;;7.47;5.17;;;;;;;;;;5037946;28;20213;-67
2022/05/22 03:08:23;;;;;;;5.67;4.13;;;;;;;;;;5056453;28;20646;-66
2022/05/22 03:10:49;;;;;;;10.10;4.77;;;;;;;;;;5055689;28;20194;-66
2022/05/22 03:13:15;;;;;;;7.40;4.50;;;;;;;;;;5037936;28;20186;-66
2022/05/22 03:15:41;;;;;;;5.57;3.90;;;;;;;;;;5056198;28;20186;-66
2022/05/22 03:18:08;;;;;;;4.77;4.00;;;;;;;;;;5055716;28;20261;-67
2022/05/22 03:20:34;;;;;;;5.50;4.13;;;;;;;;;;5037606;28;20202;-66
2022/05/22 03:23:00;;;;;;;4.23;3.53;;;;;;;;;;5055715;28;20255;-66
2022/05/22 03:25:26;;;;;;;5.17;3.93;;;;;;;;;;5055372;28;20647;-66
2022/05/22 03:27:52;;;;;;;6.10;3.93;;;;;;;;;;5055724;28;20179;-66
2022/05/22 03:30:18;;;;;;;5.37;3.83;;;;;;;;;;5037375;28;20194;-67
2022/05/22 03:32:44;;;;;;;8.40;4.07;;;;;;;;;;5055656;28;20661;-66
2022/05/22 03:35:10;;;;;;;6.20;3.93;;;;;;;;;;5055256;28;20183;-66
2022/05/22 03:37:37;;;;;;;4.87;4.07;;;;;;;;;;5055397;28;20236;-66
2022/05/22 03:40:03;;;;;;;5.13;3.80;;;;;;;;;;5037356;28;20255;-66
2022/05/22 03:42:29;;;;;;;4.33;3.93;;;;;;;;;;5055171;28;20255;-67
2022/05/22 03:44:55;;;;;;;5.97;3.57;;;;;;;;;;5055699;28;20200;-66
2022/05/22 03:47:21;;;;;;;6.87;4.27;;;;;;;;;;5055356;28;20257;-66
2022/05/22 03:49:47;;;;;;;5.93;3.60;;;;;;;;;;5055069;28;20237;-66
2022/05/22 03:52:13;;;;;;;6.63;4.40;;;;;;;;;;5054911;28;20182;-66
2022/05/22 03:54:39;;;;;;;7.83;3.80;;;;;;;;;;5055017;28;20240;-66
2022/05/22 03:57:05;;;;;;;7.37;3.67;;;;;;;;;;5054900;28;20647;-66
2022/05/22 03:59:32;;;;;;;4.87;4.07;;;;;;;;;;5054851;28;20214;-66
2022/05/22 04:01:58;;;;;;;6.73;3.80;;;;;;;;;;5037034;28;20173;-66
2022/05/22 04:04:24;;;;;;;6.13;3.93;;;;;;;;;;5054778;28;20190;-66
2022/05/22 04:06:50;;;;;;;4.73;3.47;;;;;;;;;;5054921;28;20182;-66
2022/05/22 04:09:15;;;;;;;8.70;3.87;;;;;;;;;;5036896;28;20187;-65
2022/05/22 04:11:41;;;;;;;6.90;3.70;;;;;;;;;;5036799;28;20178;-66
2022/05/22 04:14:08;;;;;;;6.20;3.70;;;;;;;;;;5054680;28;20171;-66
2022/05/22 04:16:34;;;;;;;6.07;3.87;;;;;;;;;;5054885;28;20179;-66
2022/05/22 04:19:00;;;;;;;7.27;3.60;;;;;;;;;;5054475;28;20174;-66
2022/05/22 04:21:26;;;;;;;7.30;4.23;;;;;;;;;;5054404;28;20234;-66
2022/05/22 04:26:37;;;;;;;9.40;3.83;;;;;;;;;;5054671;28;20170;-66
2022/05/22 04:29:03;;;;;;;4.57;3.73;;;;;;;;;;5054564;28;20186;-66
2022/05/22 04:31:29;;;;;;;5.53;3.17;;;;;;;;;;5036366;28;20198;-67
2022/05/22 04:33:55;;;;;;;5.10;3.93;;;;;;;;;;5054284;28;20185;-66
2022/05/22 04:36:21;;;;;;;6.10;3.77;;;;;;;;;;5036552;28;20240;-66
2022/05/22 04:38:47;;;;;;;6.13;3.63;;;;;;;;;;5054325;28;20183;-66
2022/05/22 04:41:13;;;;;;;6.50;3.87;;;;;;;;;;5036284;28;20202;-66
2022/05/22 04:43:39;;;;;;;6.27;3.97;;;;;;;;;;5054097;28;20206;-67
2022/05/22 04:46:07;;;;;;;6.70;4.07;;;;;;;;;;5036440;28;20602;-66
2022/05/22 04:48:33;;;;;;;5.60;3.70;;;;;;;;;;5054201;28;20171;-67
2022/05/22 04:50:59;;;;;;;8.60;4.13;;;;;;;;;;5053803;28;20619;-67
2022/05/22 04:53:26;;;;;;;7.47;3.80;;;;;;;;;;5054154;28;20590;-66
2022/05/22 04:55:52;;;;;;;5.37;4.10;;;;;;;;;;5054166;28;20224;-66
2022/05/22 04:58:19;;;;;;;7.00;4.27;;;;;;;;;;5036044;28;20178;-66
2022/05/22 05:00:45;;;;;;;5.93;4.20;;;;;;;;;;5053685;28;20210;-66
2022/05/22 05:03:12;;;;;;;8.30;3.87;;;;;;;;;;5053904;28;20558;-66
2022/05/22 05:05:38;;;;;;;8.10;4.23;;;;;;;;;;5053696;28;20222;-67
2022/05/22 05:08:04;;;;;;;7.47;4.37;;;;;;;;;;5035867;28;20189;-66
2022/05/22 05:10:30;;;;;;;7.70;4.57;;;;;;;;;;5035738;28;20291;-67
2022/05/22 05:12:56;;;;;;;6.10;4.60;;;;;;;;;;5054097;28;20182;-66
2022/05/22 05:15:24;;;;;;;8.70;4.67;;;;;;;;;;5054292;28;20178;-67
2022/05/22 05:17:50;;;;;;;8.60;4.70;;;;;;;;;;5053794;28;20178;-66
2022/05/22 05:20:18;;;;;;;8.03;5.37;;;;;;;;;;5035780;28;20256;-67
2022/05/22 05:22:44;;;;;;;5.13;4.33;;;;;;;;;;5053440;28;20205;-66
2022/05/22 05:25:11;;;;;;;8.53;4.60;;;;;;;;;;5053414;28;20178;-66
2022/05/22 05:27:37;;;;;;;6.90;4.73;;;;;;;;;;5053754;28;20190;-67
2022/05/22 05:30:03;;;;;;;7.27;4.87;;;;;;;;;;5053414;28;20194;-66
2022/05/22 05:32:29;;;;;;;9.07;4.70;;;;;;;;;;5035685;28;20182;-66
2022/05/22 05:34:57;;;;;;;8.73;4.63;;;;;;;;;;5035717;28;20669;-66
2022/05/22 05:37:23;;;;;;;6.30;3.97;;;;;;;;;;5053529;28;20179;-66
2022/05/22 05:39:49;;;;;;;7.67;4.17;;;;;;;;;;5053042;28;20210;-66
2022/05/22 05:42:15;;;;;;;8.83;4.57;;;;;;;;;;5053692;28;20217;-66
2022/05/22 05:44:41;;;;;;;7.13;4.63;;;;;;;;;;5053560;28;20210;-67
2022/05/22 05:47:08;;;;;;;7.77;4.73;;;;;;;;;;5035310;28;20178;-66
2022/05/22 05:49:34;;;;;;;7.03;5.03;;;;;;;;;;5035216;28;20561;-66
2022/05/22 05:52:02;;;;;;;7.73;5.37;;;;;;;;;;5053192;28;20174;-66
2022/05/22 05:54:28;;;;;;;8.30;5.13;;;;;;;;;;5035293;28;20267;-67
2022/05/22 05:56:54;;;;;;;7.67;5.03;;;;;;;;;;5035436;28;20178;-67
2022/05/22 05:59:20;;;;;;;5.93;5.03;;;;;;;;;;5053489;28;20631;-67
2022/05/22 06:01:46;;;;;;;8.60;4.77;;;;;;;;;;5056538;28;20631;-67
2022/05/22 06:04:12;;;;;;;6.13;4.43;;;;;;;;;;5057270;28;20666;-67
2022/05/22 06:06:37;;;;;;;6.10;4.93;;;;;;;;;;5057418;28;20174;-67
2022/05/22 06:09:04;;;;;;;9.77;4.80;;;;;;;;;;5057206;28;20296;-66
2022/05/22 06:11:30;;;;;;;7.83;5.33;;;;;;;;;;5039287;28;20206;-67
2022/05/22 06:13:56;;;;;;;7.13;5.20;;;;;;;;;;5057751;28;20186;-65
2022/05/22 06:16:22;;;;;;;6.37;5.13;;;;;;;;;;5039300;28;20174;-66
2022/05/22 06:18:48;;;;;;;6.60;5.10;;;;;;;;;;5057796;28;20186;-66
2022/05/22 06:21:16;;;;;;;6.43;5.50;;;;;;;;;;5056943;28;20202;-66
2022/05/22 06:23:42;;;;;;;8.20;6.33;;;;;;;;;;5057229;28;20213;-66
2022/05/22 06:26:08;;;;;;;8.00;5.73;;;;;;;;;;5056871;28;20262;-66
2022/05/22 06:28:36;;;;;;;7.83;5.87;;;;;;;;;;5056966;28;20249;-66
2022/05/22 06:31:04;;;;;;;9.13;6.00;;;;;;;;;;5039240;28;20202;-66
2022/05/22 06:33:30;;;;;;;10.23;6.10;;;;;;;;;;5038963;28;20188;-66
2022/05/22 06:35:56;;;;;;;9.07;6.00;;;;;;;;;;5056952;28;20178;-66
2022/05/22 06:41:07;;;;;;;9.13;5.77;;;;;;;;;;5058070;28;20236;-67
2022/05/22 06:43:33;;;;;;;6.43;5.57;;;;;;;;;;5056752;28;20202;-67
2022/05/22 06:45:59;;;;;;;8.87;5.97;;;;;;;;;;5038606;28;20179;-66
2022/05/22 06:48:25;;;;;;;9.03;5.83;;;;;;;;;;5038953;28;20185;-67
2022/05/22 06:50:51;;;;;;;10.57;6.07;;;;;;;;;;5056538;28;20190;-66
2022/05/22 06:53:17;;;;;;;8.37;6.27;;;;;;;;;;5038883;28;20236;-67
2022/05/22 06:55:43;;;;;;;10.00;6.87;;;;;;;;;;5038754;28;20179;-66
2022/05/22 06:58:09;;;;;;;11.30;6.17;;;;;;;;;;5056899;28;20178;-67
2022/05/22 07:00:35;;;;;;;9.13;5.83;;;;;;;;;;5056288;28;20226;-66
2022/05/22 07:03:01;;;;;;;9.47;6.20;;;;;;;;;;5056956;28;20320;-67
2022/05/22 07:05:27;;;;;;;11.17;6.20;;;;;;;;;;5056568;28;20228;-66
2022/05/22 07:07:53;;;;;;;13.20;5.77;;;;;;;;;;5038558;28;20269;-66
2022/05/22 07:11:38;;;;;;;9.50;5.57;;;;;;;;;;5056357;28;20222;-67
2022/05/22 07:13:06;;;;;;;11.47;5.03;;;;;;;;;;5055399;28;20662;-67
2022/05/22 07:15:31;;;;;;;8.17;5.07;;;;;;;;;;5056216;28;20179;-67
2022/05/22 07:17:57;;;;;;;7.93;5.17;;;;;;;;;;5055617;28;20625;-67
2022/05/22 07:20:23;;;;;;;11.87;6.70;;;;;;;;;;5055982;28;20584;-66
2022/05/22 07:22:49;;;;;;;11.17;6.60;;;;;;;;;;5056188;28;20206;-67
2022/05/22 07:25:15;;;;;;;11.53;6.10;;;;;;;;;;5037795;28;20265;-67
2022/05/22 07:27:41;;;;;;;10.63;6.33;;;;;;;;;;5038089;28;20209;-66
2022/05/22 07:30:08;;;;;;;8.33;5.17;;;;;;;;;;5056159;28;20256;-66
2022/05/22 07:32:34;;;;;;;9.40;4.97;;;;;;;;;;5055524;28;20182;-66
2022/05/22 07:35:00;;;;;;;8.07;4.43;;;;;;;;;;5055339;28;20189;-66
2022/05/22 07:37:26;;;;;;;7.93;4.20;;;;;;;;;;5055424;28;20175;-67
2022/05/22 07:39:52;;;;;;;7.17;4.10;;;;;;;;;;5055295;28;20202;-68
2022/05/22 07:42:18;;;;;;;5.60;4.30;;;;;;;;;;5055572;28;20535;-66
2022/05/22 07:44:44;;;;;;;4.57;3.43;;;;;;;;;;5055183;28;20179;-66
2022/05/22 07:47:10;;;;;;;6.57;3.70;;;;;;;;;;5055344;28;20194;-67
2022/05/22 07:50:20;;;;;;;4.37;3.13;;;;;;;;;;5055384;28;20198;-66
2022/05/22 07:52:26;;;;;;;7.70;3.47;;;;;;;;;;5046885;28;20245;-65
2022/05/22 07:54:52;;;;;;;7.30;3.17;;;;;;;;;;5037178;28;20230;-66
2022/05/22 07:57:18;;;;;;;7.03;2.40;;;;;;;;;;5054879;28;20174;-67
2022/05/22 07:59:44;;;;;;;4.93;2.93;;;;;;;;;;5055215;28;20256;-66
2022/05/22 08:02:12;;;;;;;4.90;2.70;;;;;;;;;;5055291;28;20175;-66
2022/05/22 08:04:39;;;;;;;4.57;2.53;;;;;;;;;;5054945;28;20170;-66
2022/05/22 08:07:05;;;;;;;8.07;2.53;;;;;;;;;;5055365;28;20587;-66
2022/05/22 08:09:31;;;;;;;3.03;2.70;;;;;;;;;;5036989;28;20170;-66
2022/05/22 08:11:57;;;;;;;5.23;3.43;;;;;;;;;;5036926;28;20205;-66
2022/05/22 08:14:23;;;;;;;4.23;2.20;;;;;;;;;;5054893;28;20555;-67
2022/05/22 08:16:51;;;;;;;4.60;2.43;;;;;;;;;;5036749;28;20187;-66
2022/05/22 08:19:18;;;;;;;8.80;3.37;;;;;;;;;;5054584;28;20229;-66
2022/05/22 08:21:44;;;;;;;4.03;2.70;;;;;;;;;;5054423;28;20596;-66
2022/05/22 08:24:09;;;;;;;9.23;3.10;;;;;;;;;;5035649;28;20206;-67
2022/05/22 08:26:37;;;;;;;4.60;2.60;;;;;;;;;;5054748;28;20261;-67
2022/05/22 08:29:03;;;;;;;4.20;3.33;;;;;;;;;;5081266;22;21198;-67
2022/05/22 08:31:29;;;;;;;7.23;3.03;;;;;;;;;;5075263;28;20564;-66
2022/05/22 08:33:55;;;;;;;7.17;4.00;;;;;;;;;;5057068;28;20195;-66
2022/05/22 08:36:21;;;;;;;4.63;3.10;;;;;;;;;;5074914;28;20545;-66
2022/05/22 08:38:47;;;;;;;8.80;3.47;;;;;;;;;;5056978;28;20273;-66
2022/05/22 08:41:21;;;;;;;4.83;3.40;;;;;;;;;;5056953;28;20209;-66
2022/05/22 08:44:02;;;;;;;5.27;3.10;;;;;;;;;;5074917;28;20666;-66
2022/05/22 08:46:34;;;;;;;6.50;3.53;;;;;;;;;;5075335;28;20158;-67
2022/05/22 08:49:02;;;;;;;7.10;3.30;;;;;;;;;;5075404;28;20162;-65
2022/05/22 08:51:51;;;;;;;8.57;3.70;;;;;;;;;;5074896;28;20697;-66
2022/05/22 08:54:24;;;;;;;4.87;3.83;;;;;;;;;;5056435;28;20185;-66
2022/05/22 08:59:39;;;;;;;6.00;4.20;;;;;;;;;;5074814;28;20284;-67
2022/05/22 09:02:06;;;;;;;6.83;3.77;;;;;;;;;;5056446;28;20186;-67
2022/05/22 09:04:32;;;;;;;5.40;3.40;;;;;;;;;;5056166;28;20300;-67
2022/05/22 09:07:04;;;;;;;6.50;3.73;;;;;;;;;;5056578;28;20228;-67
2022/05/22 09:09:32;;;;;;;8.20;3.63;;;;;;;;;;5073851;28;20201;-66
2022/05/22 09:12:24;;;;;;;7.13;4.27;;;;;;;;;;5074046;28;20286;-67
2022/05/22 09:14:58;;;;;;;5.47;3.73;;;;;;;;;;5053269;28;20569;-66
2022/05/22 09:17:31;;;;;;;4.60;3.27;;;;;;;;;;5073816;28;20223;-66
2022/05/22 09:20:17;;;;;;;4.63;3.73;;;;;;;;;;5074007;28;20197;-67
2022/05/22 09:22:43;;;;;;;7.63;3.70;;;;;;;;;;5056116;28;20599;-66
2022/05/22 09:25:09;;;;;;;7.03;4.57;;;;;;;;;;5074120;28;20174;-66
2022/05/22 09:27:44;;;;;;;7.73;4.63;;;;;;;;;;5056194;28;20178;-67
2022/05/22 09:30:17;;;;;;;7.97;5.23;;;;;;;;;;5073875;28;20212;-68
2022/05/22 09:32:53;;;;;;;6.40;4.97;;;;;;;;;;5074151;28;20178;-66
2022/05/22 09:35:36;;;;;;;8.23;5.43;;;;;;;;;;5073865;28;20166;-66
2022/05/22 09:38:05;;;;;;;8.90;5.90;;;;;;;;;;5055811;28;20174;-66
2022/05/22 09:40:37;;;;;;;10.10;5.90;;;;;;;;;;5073543;28;20197;-66
2022/05/22 09:43:03;;;;;;;7.73;4.97;;;;;;;;;;5073444;28;20658;-66
2022/05/22 09:45:38;;;;;;;6.93;5.00;;;;;;;;;;5073678;28;20173;-67
2022/05/22 09:48:19;;;;;;;8.47;4.80;;;;;;;;;;5073465;28;20663;-66
2022/05/22 09:50:49;;;;;;;12.20;4.90;;;;;;;;;;5073442;28;20338;-66
2022/05/22 09:53:15;;;;;;;8.97;4.70;;;;;;;;;;5055666;28;20178;-66
2022/05/22 09:55:42;;;;;;;6.70;4.50;;;;;;;;;;5073451;28;20178;-67
2022/05/22 09:58:20;;;;;;;11.00;5.23;;;;;;;;;;5073273;28;20184;-66
2022/05/22 10:00:46;;;;;;;9.27;4.33;;;;;;;;;;5073254;28;20323;-66
2022/05/22 10:03:15;;;;;;;7.97;5.67;;;;;;;;;;5055442;28;20300;-67
2022/05/22 10:05:47;;;;;;;11.70;6.47;;;;;;;;;;5073620;28;20212;-66
2022/05/22 10:08:19;;;;;;;10.23;6.43;;;;;;;;;;5073972;28;20166;-66
2022/05/22 10:10:48;;;;;;;7.40;5.90;;;;;;;;;;5073061;28;20658;-66
2022/05/22 10:13:26;;;;;;;8.07;5.83;;;;;;;;;;5073386;28;20312;-66
2022/05/22 10:16:01;;;;;;;10.73;6.27;;;;;;;;;;5073264;28;20169;-66
2022/05/22 10:18:27;;;;;;;9.87;6.03;;;;;;;;;;5073615;28;20181;-66
2022/05/22 10:20:58;;;;;;;6.80;6.10;;;;;;;;;;5073162;28;20197;-66
2022/05/22 10:23:27;;;;;;;7.17;5.63;;;;;;;;;;5056272;28;20205;-66
2022/05/22 10:26:10;;;;;;;7.13;5.70;;;;;;;;;;5056845;28;20254;-65
2022/05/22 10:28:40;;;;;;;7.57;5.10;;;;;;;;;;5073950;28;20158;-65
2022/05/22 10:31:12;;;;;;;8.07;4.77;;;;;;;;;;5073306;28;20275;-68
2022/05/22 10:33:48;;;;;;;7.50;4.77;;;;;;;;;;5073180;28;20181;-67
2022/05/22 10:36:16;;;;;;;8.83;5.83;;;;;;;;;;5073957;28;20170;-66
2022/05/22 10:38:44;;;;;;;6.80;5.03;;;;;;;;;;5055300;28;20205;-71
2022/05/22 10:44:04;;;;;;;8.23;5.23;;;;;;;;;;5073538;28;20204;-63
2022/05/22 10:46:30;;;;;;;5.83;5.03;;;;;;;;;;5055922;28;20182;-63
2022/05/22 10:48:57;;;;;;;6.30;5.00;;;;;;;;;;5058802;28;20242;-63
2022/05/22 10:51:24;;;;;;;9.20;5.27;;;;;;;;;;5076812;28;20219;-64
2022/05/22 10:53:53;;;;;;;8.77;5.03;;;;;;;;;;5059451;28;20228;-64
2022/05/22 10:56:19;;;;;;;9.00;5.33;;;;;;;;;;5058929;28;20182;-63
2022/05/22 10:59:09;;;;;;;7.50;5.30;;;;;;;;;;5076946;28;20231;-65
2022/05/22 11:01:37;;;;;;;11.60;7.63;;;;;;;;;;5076296;28;20166;-63
2022/05/22 11:04:07;;;;;;;6.80;4.17;;;;;;;;;;5058337;28;20695;-64
2022/05/22 11:06:34;;;;;;;5.03;4.37;;;;;;;;;;5058573;28;20634;-63
2022/05/22 11:09:00;;;;;;;10.67;4.87;;;;;;;;;;5076349;28;20178;-62
2022/05/22 11:11:28;;;;;;;7.50;4.93;;;;;;;;;;5058350;28;20177;-63
2022/05/22 11:14:05;;;;;;;5.80;4.40;;;;;;;;;;5058299;28;20242;-63
2022/05/22 11:16:31;;;;;;;6.13;4.20;;;;;;;;;;5076539;28;20196;-63
2022/05/22 11:19:03;;;;;;;6.83;4.20;;;;;;;;;;5058083;28;20638;-62
2022/05/22 11:21:35;;;;;;;7.50;4.40;;;;;;;;;;5076908;28;20651;-62
2022/05/22 11:24:08;;;;;;;6.33;4.40;;;;;;;;;;5075681;28;20204;-63
2022/05/22 11:26:50;;;;;;;5.57;3.90;;;;;;;;;;5076326;28;20299;-63
2022/05/22 11:29:34;;;;;;;6.23;4.63;;;;;;;;;;5057825;28;20209;-63
2022/05/22 11:32:08;;;;;;;5.33;4.03;;;;;;;;;;5076242;28;20177;-62
2022/05/22 11:34:49;;;;;;;5.57;4.10;;;;;;;;;;5075968;28;20190;-64
2022/05/22 11:37:18;;;;;;;5.33;4.33;;;;;;;;;;5057871;28;20268;-63
2022/05/22 11:40:03;;;;;;;5.27;3.90;;;;;;;;;;5075915;28;20229;-63
2022/05/22 11:42:29;;;;;;;6.63;4.20;;;;;;;;;;5075675;28;20604;-65
2022/05/22 11:45:06;;;;;;;6.50;4.60;;;;;;;;;;5075996;28;20256;-64
2022/05/22 11:47:32;;;;;;;8.90;4.40;;;;;;;;;;5075861;28;20188;-64
2022/05/22 11:50:36;;;;;;;8.40;4.93;;;;;;;;;;5057338;28;20202;-64
2022/05/22 11:53:20;;;;;;;5.23;3.90;;;;;;;;;;4974577;28;20224;-63
2022/05/22 11:56:00;;;;;;;4.47;3.90;;;;;;;;;;4974671;28;20181;-63
2022/05/22 11:58:32;;;;;;;6.40;4.57;;;;;;;;;;5043185;28;20232;-63
2022/05/22 12:01:11;;;;;;;3.70;3.37;;;;;;;;;;5075210;28;20194;-63
2022/05/22 12:03:55;;;;;;;6.77;3.90;;;;;;;;;;5075379;28;20193;-63
2022/05/22 12:06:30;;;;;;;4.03;3.63;;;;;;;;;;5074901;28;20170;-64
2022/05/22 12:09:15;;;;;;;6.87;4.27;;;;;;;;;;5074974;28;20170;-63
2022/05/22 12:11:56;;;;;;;8.87;4.40;;;;;;;;;;5056998;28;20178;-62
2022/05/22 12:14:34;;;;;;;5.20;3.77;;;;;;;;;;5075076;28;20650;-63
2022/05/22 12:17:03;;;;;;;4.60;3.43;;;;;;;;;;5075026;28;20248;-64
2022/05/22 12:19:28;;;;;;;5.63;3.67;;;;;;;;;;5074675;28;20679;-63
2022/05/22 12:22:15;;;;;;;7.27;4.47;;;;;;;;;;5074799;28;20178;-63
2022/05/22 12:24:59;;;;;;;7.43;4.00;;;;;;;;;;5074694;28;20205;-63
2022/05/22 12:27:27;;;;;;;5.07;4.07;;;;;;;;;;5074863;28;20361;-63
2022/05/22 12:29:59;;;;;;;6.10;3.50;;;;;;;;;;5056470;28;20210;-63
2022/05/22 12:32:26;;;;;;;5.03;3.77;;;;;;;;;;5074477;28;20205;-64
2022/05/22 12:34:53;;;;;;;6.87;3.87;;;;;;;;;;5074804;28;20184;-63
2022/05/22 12:37:26;;;;;;;3.90;3.30;;;;;;;;;;5056325;28;20178;-64
2022/05/22 12:39:59;;;;;;;4.13;3.40;;;;;;;;;;5074482;28;20198;-64
2022/05/22 12:42:31;;;;;;;7.07;3.70;;;;;;;;;;5074740;28;20522;-63
2022/05/22 12:44:57;;;;;;;4.10;3.70;;;;;;;;;;5056241;28;20181;-62
2022/05/22 12:47:33;;;;;;;4.20;3.27;;;;;;;;;;5073993;28;20253;-63
2022/05/22 12:49:59;;;;;;;7.83;3.50;;;;;;;;;;5074060;28;20204;-63
2022/05/22 12:52:28;;;;;;;9.40;3.60;;;;;;;;;;5074032;28;20174;-63
2022/05/22 12:54:58;;;;;;;5.63;3.77;;;;;;;;;;5055881;28;20630;-64
2022/05/22 12:57:25;;;;;;;5.40;3.40;;;;;;;;;;5074082;28;20591;-63
2022/05/22 13:00:00;;;;;;;5.20;3.50;;;;;;;;;;5073792;28;20657;-63
2022/05/22 13:02:37;;;;;;;4.53;3.30;;;;;;;;;;5073832;28;20227;-64
2022/05/22 13:05:11;;;;;;;4.97;3.33;;;;;;;;;;5073667;28;20589;-63
2022/05/22 13:07:38;;;;;;;5.20;3.20;;;;;;;;;;5055973;28;20173;-63
2022/05/22 13:10:20;;;;;;;7.67;3.73;;;;;;;;;;5073511;28;20201;-63
2022/05/22 13:12:51;;;;;;;4.63;3.47;;;;;;;;;;5056133;28;20185;-63
2022/05/22 13:15:23;;;;;;;5.47;3.40;;;;;;;;;;5074394;28;20158;-63
2022/05/22 13:17:53;;;;;;;5.30;4.03;;;;;;;;;;5056149;28;20254;-63
2022/05/22 13:20:22;;;;;;;7.97;3.27;;;;;;;;;;5074641;28;20213;-63
2022/05/22 13:22:48;;;;;;;5.00;2.90;;;;;;;;;;5074385;28;20623;-63
2022/05/22 13:25:28;;;;;;;5.27;3.30;;;;;;;;;;5074146;28;20658;-64
2022/05/22 13:27:54;;;;;;;5.83;3.57;;;;;;;;;;5073919;28;20262;-63
2022/05/22 13:30:22;;;;;;;4.17;3.20;;;;;;;;;;5073395;28;20286;-63
2022/05/22 13:32:51;;;;;;;4.60;3.23;;;;;;;;;;5073353;28;20177;-63
2022/05/22 13:35:19;;;;;;;6.30;2.93;;;;;;;;;;5073483;28;20177;-62
2022/05/22 13:37:50;;;;;;;4.10;3.00;;;;;;;;;;5073312;28;20230;-63
2022/05/22 13:40:23;;;;;;;4.13;3.07;;;;;;;;;;5073369;28;20280;-64
2022/05/22 13:43:01;;;;;;;4.13;3.10;;;;;;;;;;5073246;28;20208;-63
2022/05/22 13:45:32;;;;;;;3.77;2.80;;;;;;;;;;5073533;28;20546;-63
2022/05/22 13:48:07;;;;;;;5.80;3.00;;;;;;;;;;5073760;28;20185;-64
2022/05/22 13:54:28;;;;;;;5.27;3.13;;;;;;;;;;4935226;28;20196;-63
2022/05/22 13:56:54;;;;;;;3.93;2.90;;;;;;;;;;5065367;28;20716;-64
2022/05/22 13:59:27;;;;;;;6.10;3.20;;;;;;;;;;5073455;28;20284;-64
2022/05/22 14:01:54;;;;;;;3.70;2.93;;;;;;;;;;5055306;28;20248;-63
2022/05/22 14:04:20;;;;;;;5.40;3.03;;;;;;;;;;5072991;28;20209;-64
2022/05/22 14:06:50;;;;;;;4.90;3.17;;;;;;;;;;5073430;28;20701;-63
2022/05/22 14:09:29;;;;;;;4.80;2.83;;;;;;;;;;5055059;28;20201;-63
2022/05/22 14:11:55;;;;;;;4.83;2.83;;;;;;;;;;5055223;28;20285;-63
2022/05/22 14:14:25;;;;;;;5.60;2.97;;;;;;;;;;5073085;28;20551;-63
2022/05/22 14:16:54;;;;;;;5.00;2.77;;;;;;;;;;5055024;28;20182;-63
2022/05/22 14:19:26;;;;;;;5.67;2.70;;;;;;;;;;5073016;28;20204;-63
2022/05/22 14:21:52;;;;;;;7.87;2.57;;;;;;;;;;5074704;28;20633;-63
2022/05/22 14:27:07;;;;;;;4.53;2.47;;;;;;;;;;5077157;28;20172;-65
2022/05/22 14:29:34;;;;;;;3.87;2.57;;;;;;;;;;5058503;28;20234;-63
2022/05/22 14:32:00;;;;;;;5.27;3.17;;;;;;;;;;5077035;28;20550;-63
2022/05/22 14:34:28;;;;;;;8.23;4.37;;;;;;;;;;5058689;28;20189;-63
2022/05/22 14:36:55;;;;;;;3.83;3.10;;;;;;;;;;5076611;28;20170;-64
2022/05/22 14:39:23;;;;;;;4.60;3.20;;;;;;;;;;5076464;28;20208;-63
2022/05/22 14:41:50;;;;;;;4.47;3.03;;;;;;;;;;5076668;28;20265;-63
2022/05/22 14:44:19;;;;;;;4.63;3.10;;;;;;;;;;5076457;28;20293;-64
2022/05/22 14:46:45;;;;;;;3.10;2.80;;;;;;;;;;5101742;22;20328;-67
2022/05/22 14:49:19;;;;;;;4.10;2.70;;;;;;;;;;5076476;28;20198;-66
2022/05/22 14:51:49;;;;;;;4.73;2.90;;;;;;;;;;5076307;28;20174;-67
2022/05/22 14:54:37;;;;;;;3.67;2.40;;;;;;;;;;5076242;28;20219;-67
2022/05/22 14:57:19;;;;;;;7.03;2.70;;;;;;;;;;5076359;28;20190;-67
2022/05/22 14:59:57;;;;;;;4.13;2.80;;;;;;;;;;5076023;28;20199;-67
2022/05/22 15:02:32;;;;;;;4.83;2.57;;;;;;;;;;5057973;28;20676;-67
2022/05/22 15:05:01;;;;;;;4.07;2.30;;;;;;;;;;5075905;28;20650;-67
2022/05/22 15:07:29;;;;;;;3.53;2.40;;;;;;;;;;5076065;28;20194;-67
2022/05/22 15:09:59;;;;;;;8.07;2.67;;;;;;;;;;5075951;28;20213;-66
2022/05/22 15:12:45;;;;;;;8.70;5.43;;;;;;;;;;5057828;28;20184;-67
2022/05/22 15:15:23;;;;;;;6.60;3.03;;;;;;;;;;5057866;28;20193;-67
2022/05/22 15:17:58;;;;;;;3.57;3.27;;;;;;;;;;5057667;28;20730;-67
2022/05/22 15:20:28;;;;;;;6.83;4.27;;;;;;;;;;5075715;28;20177;-69
2022/05/22 15:25:44;;;;;;;3.10;2.70;;;;;;;;;;5075586;28;20173;-67